»·PEaware :: DLH400 KSFO-KSEA

DLH400 :: KSFO-KSEA

FLIGHT INFORMATION

Flight Status: Arrived
Operator:
Lufthansa
More flights by this operator :: More flights under this callsign
Pilot: Alfredo R. (12181)
Aircraft: Boeing 747-8
(B748)
More flights by this aircraft type
Origin: KSFO San Francisco Intl
United States
Destination: KSEA Seattle-Tacoma Intl
United States
More flights between these airports :: More routes between these airports
Route: TRUKN2 DEDHD RBL BTG HAWKZ7
File this flight plan on PilotEdge
Remarks: RMK / SIMBRIEF
Altitude:
(Current/Filed)
40,000ft
Speed:
(Current/Filed)
488kts
Departed: 14-Feb-21 01:33 PM
Arrived: 14-Feb-21 03:21 PM
Distance/Time
Traveled:
590nm/1:48
Distance/Time
To Go:
Arrived

Flight Plot

Page will automatically refresh every two minutes.

Flight plan parsing failed; only flown route is shown


Map Options




Map Legend


Flown Route
Filed Route
Departure Airport
Arrival Airport
Navaid (VOR, NDB)
Fix

Horizontal Profiles

Position Reports

Time Latitude Longitude Heading Altitude Ground
Speed
14-Feb-21 12:38 37.611187 -122.390427 42 28ft 0kts
14-Feb-21 12:39 37.611187 -122.390427 42 28ft 0kts
14-Feb-21 12:40 37.611187 -122.390427 42 28ft 0kts
14-Feb-21 12:41 37.611187 -122.390427 42 28ft 0kts
14-Feb-21 12:42 37.611187 -122.390427 42 28ft 0kts
14-Feb-21 12:43 37.611187 -122.390427 42 28ft 0kts
14-Feb-21 12:44 37.611187 -122.390427 42 28ft 0kts
14-Feb-21 12:45 37.611187 -122.390427 42 28ft 0kts
14-Feb-21 12:46 37.611187 -122.390427 42 28ft 0kts
14-Feb-21 12:47 37.611187 -122.390427 42 28ft 0kts
14-Feb-21 12:48 37.611187 -122.390427 42 28ft 0kts
14-Feb-21 12:49 37.611187 -122.390427 42 28ft 0kts
14-Feb-21 12:50 37.611187 -122.390427 42 28ft 0kts
14-Feb-21 12:51 37.611187 -122.390427 42 28ft 0kts
14-Feb-21 12:52 37.611187 -122.390427 42 28ft 0kts
14-Feb-21 12:53 37.611187 -122.390427 42 28ft 0kts
14-Feb-21 12:54 37.611187 -122.390427 42 28ft 0kts
14-Feb-21 12:55 37.611187 -122.390427 42 28ft 0kts
14-Feb-21 12:56 37.611187 -122.390427 42 28ft 0kts
14-Feb-21 12:57 37.611187 -122.390427 42 28ft 0kts
14-Feb-21 12:58 37.611187 -122.390427 42 28ft 0kts
14-Feb-21 12:59 37.611187 -122.390427 42 28ft 0kts
14-Feb-21 13:00 37.611187 -122.390427 42 28ft 0kts
14-Feb-21 13:01 37.611187 -122.390427 42 28ft 0kts
14-Feb-21 13:02 37.611187 -122.390427 42 28ft 0kts
14-Feb-21 13:03 37.611187 -122.390427 42 28ft 0kts
14-Feb-21 13:04 37.611187 -122.390427 42 28ft 0kts
14-Feb-21 13:05 37.611187 -122.390427 42 28ft 0kts
14-Feb-21 13:06 37.611187 -122.390427 42 28ft 0kts
14-Feb-21 13:07 37.611187 -122.390427 42 28ft 0kts
14-Feb-21 13:08 37.611187 -122.390427 42 28ft 0kts
14-Feb-21 13:09 37.611187 -122.390427 42 28ft 0kts
14-Feb-21 13:10 37.611187 -122.390427 42 28ft 0kts
14-Feb-21 13:11 37.611187 -122.390427 42 28ft 0kts
14-Feb-21 13:12 37.611187 -122.390427 42 28ft 0kts
14-Feb-21 13:13 37.611186 -122.390428 42 28ft 0kts
14-Feb-21 13:14 37.610816 -122.390955 92 28ft 1kts
14-Feb-21 13:15 37.610409 -122.390470 131 28ft 1kts
14-Feb-21 13:16 37.610388 -122.390437 130 28ft 0kts
14-Feb-21 13:17 37.610388 -122.390437 130 28ft 0kts
14-Feb-21 13:18 37.610388 -122.390437 130 28ft 0kts
14-Feb-21 13:19 37.610388 -122.390437 130 28ft 0kts
14-Feb-21 13:20 37.610388 -122.390437 130 28ft 0kts
14-Feb-21 13:21 37.610388 -122.390437 130 28ft 0kts
14-Feb-21 13:22 37.610388 -122.390437 130 28ft 0kts
14-Feb-21 13:23 37.610388 -122.390437 130 28ft 0kts
14-Feb-21 13:24 37.610388 -122.390437 130 28ft 0kts
14-Feb-21 13:25 37.610388 -122.390437 130 28ft 0kts
14-Feb-21 13:26 37.610347 -122.390068 67 28ft 2kts
14-Feb-21 13:28 37.611030 -122.388589 76 28ft 6kts
14-Feb-21 13:29 37.610197 -122.385704 118 28ft 10kts
14-Feb-21 13:30 37.608639 -122.384188 123 28ft 0kts
14-Feb-21 13:31 37.608639 -122.384188 123 28ft 0kts
14-Feb-21 13:32 37.608276 -122.382915 70 28ft 10kts
14-Feb-21 13:33 37.630242 -122.368580 23 716ft 174kts
14-Feb-21 13:34 37.669581 -122.315525 60 2880ft 261kts
14-Feb-21 13:35 37.706022 -122.235376 38 6811ft 272kts
14-Feb-21 13:36 37.767872 -122.208725 3 10464ft 263kts
14-Feb-21 13:37 37.850744 -122.193709 2 12397ft 343kts
14-Feb-21 13:38 37.948807 -122.176824 1 15832ft 370kts
14-Feb-21 13:39 38.045001 -122.160634 1 18924ft 373kts
14-Feb-21 13:40 38.150502 -122.143351 1 19198ft 385kts
14-Feb-21 13:40 38.238962 -122.128790 0 20955ft 398kts
14-Feb-21 13:42 38.367705 -122.112289 353 24474ft 404kts
14-Feb-21 13:43 38.480430 -122.120855 349 26869ft 418kts
14-Feb-21 13:43 38.577269 -122.129212 350 28679ft 433kts
14-Feb-21 13:45 38.719634 -122.139273 350 31650ft 440kts
14-Feb-21 13:45 38.817824 -122.145546 350 34869ft 410kts
14-Feb-21 13:46 38.928197 -122.153219 349 36898ft 400kts
14-Feb-21 13:48 39.056999 -122.162498 349 38620ft 395kts
14-Feb-21 13:48 39.148459 -122.168890 349 39405ft 398kts
14-Feb-21 13:49 39.257769 -122.176253 349 40138ft 393kts
14-Feb-21 13:51 39.385959 -122.185297 348 40156ft 400kts
14-Feb-21 13:51 39.479840 -122.192051 349 40144ft 406kts
14-Feb-21 13:52 39.591316 -122.199839 349 40142ft 406kts
14-Feb-21 13:53 39.703686 -122.207830 349 40138ft 406kts
14-Feb-21 13:54 39.815960 -122.215881 348 40131ft 404kts
14-Feb-21 13:55 39.927035 -122.223869 348 40126ft 404kts
14-Feb-21 13:56 40.039236 -122.231993 348 40123ft 404kts
14-Feb-21 13:57 40.151144 -122.239430 349 40138ft 405kts
14-Feb-21 13:58 40.262157 -122.245345 349 40141ft 405kts
14-Feb-21 13:59 40.374328 -122.251672 348 40123ft 407kts
14-Feb-21 14:00 40.484620 -122.258155 348 39934ft 405kts
14-Feb-21 14:01 40.591803 -122.264340 348 39933ft 406kts
14-Feb-21 14:02 40.703747 -122.271017 348 39927ft 406kts
14-Feb-21 14:03 40.815111 -122.277512 348 39924ft 407kts
14-Feb-21 14:04 40.923996 -122.284000 348 39921ft 407kts
14-Feb-21 14:05 41.036491 -122.290765 348 40024ft 408kts
14-Feb-21 14:06 41.149513 -122.297376 348 40045ft 408kts
14-Feb-21 14:07 41.260570 -122.303638 348 40049ft 407kts
14-Feb-21 14:08 41.372837 -122.310263 348 40039ft 405kts
14-Feb-21 14:09 41.484968 -122.317020 348 40047ft 405kts
14-Feb-21 14:10 41.593584 -122.323619 348 40059ft 405kts
14-Feb-21 14:11 41.704847 -122.330347 348 40057ft 405kts
14-Feb-21 14:12 41.817763 -122.337245 347 40053ft 410kts
14-Feb-21 14:13 41.929966 -122.344079 347 40052ft 410kts
14-Feb-21 14:14 42.043646 -122.351049 347 40046ft 409kts
14-Feb-21 14:15 42.157274 -122.357932 347 40064ft 410kts
14-Feb-21 14:16 42.269506 -122.364460 347 40040ft 411kts
14-Feb-21 14:17 42.384207 -122.371554 347 40041ft 414kts
14-Feb-21 14:18 42.499075 -122.378701 347 40035ft 414kts
14-Feb-21 14:19 42.612740 -122.385829 347 40044ft 414kts
14-Feb-21 14:20 42.727312 -122.392959 347 40034ft 414kts
14-Feb-21 14:21 42.840264 -122.400064 347 40034ft 415kts
14-Feb-21 14:22 42.955331 -122.407304 347 40031ft 415kts
14-Feb-21 14:23 43.070171 -122.414574 347 40022ft 415kts
14-Feb-21 14:24 43.185385 -122.421665 347 39971ft 415kts
14-Feb-21 14:25 43.298764 -122.428540 348 39965ft 411kts
14-Feb-21 14:26 43.413005 -122.435860 347 39926ft 411kts
14-Feb-21 14:27 43.526847 -122.443221 348 39927ft 411kts
14-Feb-21 14:28 43.639603 -122.450501 347 39930ft 411kts
14-Feb-21 14:29 43.753740 -122.457914 348 39922ft 411kts
14-Feb-21 14:30 43.867327 -122.465212 348 39922ft 410kts
14-Feb-21 14:31 43.980193 -122.472526 348 39917ft 410kts
14-Feb-21 14:32 44.093763 -122.480083 348 39915ft 410kts
14-Feb-21 14:33 44.207680 -122.487229 348 39936ft 410kts
14-Feb-21 14:34 44.320106 -122.494489 348 39933ft 412kts
14-Feb-21 14:35 44.432575 -122.501814 347 39920ft 405kts
14-Feb-21 14:36 44.544879 -122.509354 348 39913ft 406kts
14-Feb-21 14:37 44.656555 -122.516776 347 39914ft 405kts
14-Feb-21 14:38 44.766697 -122.523844 347 39874ft 376kts
14-Feb-21 14:39 44.871300 -122.531056 347 39915ft 379kts
14-Feb-21 14:40 44.975173 -122.538211 347 39919ft 379kts
14-Feb-21 14:41 45.080465 -122.545353 347 39929ft 380kts
14-Feb-21 14:42 45.184473 -122.552010 347 39931ft 364kts
14-Feb-21 14:43 45.284868 -122.558869 347 39941ft 370kts
14-Feb-21 14:44 45.386555 -122.565937 347 39916ft 374kts
14-Feb-21 14:45 45.487327 -122.572769 347 39687ft 373kts
14-Feb-21 14:46 45.585884 -122.579422 346 37697ft 353kts
14-Feb-21 14:47 45.680864 -122.586220 345 35638ft 346kts
14-Feb-21 14:48 45.769039 -122.595530 339 33417ft 322kts
14-Feb-21 14:49 45.851169 -122.615923 336 31673ft 312kts
14-Feb-21 14:50 45.936621 -122.637752 336 29933ft 313kts
14-Feb-21 14:51 46.020551 -122.659076 337 28306ft 321kts
14-Feb-21 14:52 46.104878 -122.680231 339 27012ft 322kts
14-Feb-21 14:53 46.192685 -122.697415 341 25907ft 326kts
14-Feb-21 14:54 46.281796 -122.714678 341 24757ft 325kts
14-Feb-21 14:55 46.370884 -122.725511 347 23622ft 332kts
14-Feb-21 14:56 46.462897 -122.728014 348 22447ft 329kts
14-Feb-21 14:57 46.553667 -122.730930 348 21256ft 325kts
14-Feb-21 14:58 46.642057 -122.734015 349 20042ft 310kts
14-Feb-21 14:59 46.723175 -122.736664 348 18761ft 277kts
14-Feb-21 15:00 46.798752 -122.723590 17 17587ft 308kts
14-Feb-21 15:01 46.867350 -122.641612 30 16431ft 326kts
14-Feb-21 15:02 46.939049 -122.563105 21 15242ft 321kts
14-Feb-21 15:03 47.021513 -122.524431 8 14076ft 313kts
14-Feb-21 15:04 47.104523 -122.494574 3 12910ft 308kts
14-Feb-21 15:05 47.187720 -122.481119 0 11683ft 290kts
14-Feb-21 15:06 47.265535 -122.469041 359 10346ft 277kts
14-Feb-21 15:07 47.340928 -122.457534 358 9118ft 274kts
14-Feb-21 15:08 47.412928 -122.455276 356 7857ft 250kts
14-Feb-21 15:09 47.481800 -122.450772 357 6691ft 247kts
14-Feb-21 15:10 47.549494 -122.449120 357 5508ft 243kts
14-Feb-21 15:11 47.615440 -122.449610 357 4359ft 229kts
14-Feb-21 15:12 47.667069 -122.423314 82 3134ft 198kts
14-Feb-21 15:13 47.675259 -122.348457 85 2940ft 187kts
14-Feb-21 15:15 47.648013 -122.305576 183 2943ft 152kts
14-Feb-21 15:16 47.606197 -122.306555 180 2926ft 151kts
14-Feb-21 15:17 47.566875 -122.306963 180 2497ft 141kts
14-Feb-21 15:18 47.527722 -122.307330 179 1739ft 140kts
14-Feb-21 15:19 47.488912 -122.307611 178 975ft 141kts
14-Feb-21 15:20 47.452281 -122.307714 180 448ft 71kts
14-Feb-21 15:21 47.449628 -122.307773 161 448ft 7kts
14-Feb-21 15:22 47.449211 -122.307031 116 448ft 0kts
14-Feb-21 15:23 47.448825 -122.306036 122 448ft 13kts
14-Feb-21 15:24 47.446918 -122.302467 151 448ft 5kts
14-Feb-21 15:25 47.446197 -122.302171 163 448ft 3kts
14-Feb-21 15:26 47.445748 -122.301720 138 448ft 0kts
14-Feb-21 15:27 47.445662 -122.301606 138 448ft 0kts
14-Feb-21 15:28 47.445662 -122.301606 138 448ft 0kts
14-Feb-21 15:28 47.445662 -122.301606 138 448ft 0kts
14-Feb-21 15:30 47.445662 -122.301606 138 448ft 0kts
14-Feb-21 15:30 47.445662 -122.301606 138 448ft 0kts

Navigation Log

Ident Type
Flight plan parsing failed, navigation log unavailable